EGPC - Wick
Distance from station: E 5mi, 14km
Updated: 10/18/2017 7:50am
Partly Cloudy
Partly Cloudy
 Wind from E
Wind: E 13 mph , 20 km/h
Temperature: 50°F , 10°C
Wind Chill: 45°F , 7°C
Dew Point: 43°F , 6°C
Humidity: 76%
Barometer: 29.94 inHg , 1014 hPa
Clouds: Partly Cloudy
Visibility: 6 miles , 10 km
Cloud details: Few Clouds 2400 ft
Partly Cloudy 3800 ft
2017/10/18 14:50 EGPC 181450Z 10011KT 9999 FEW024 SCT038 10/06 Q1014